Time;durP1;ratioP1;P1;durP2;ratioP2;P2;SDS_P1;SDS_P2;PMS_P1;PMS_P2;Temp;Humidity;BMP_temperature;BMP_pressure;BME280_temperature;BME280_humidity;BME280_pressure;Samples;Min_cycle;Max_cycle;Signal;HPM_P1;HPM_P2
2020/12/12 00:00:40;;;;;;;19.75;14.88;;;2.80;99.90;;;;;;5073995;28;20028;-79
2020/12/12 00:03:06;;;;;;;21.20;14.25;;;2.80;99.90;;;;;;5073137;28;20036;-78
2020/12/12 00:05:31;;;;;;;21.65;15.27;;;2.80;99.90;;;;;;5073168;28;20070;-78
2020/12/12 00:07:57;;;;;;;22.27;15.80;;;2.80;99.90;;;;;;5074364;28;20099;-78
2020/12/12 00:10:26;;;;;;;22.75;15.38;;;2.80;99.90;;;;;;5073057;28;20020;-78
2020/12/12 00:12:52;;;;;;;23.25;15.57;;;2.80;99.90;;;;;;5074581;28;20482;-78
2020/12/12 00:15:18;;;;;;;19.20;14.45;;;2.80;99.90;;;;;;5074506;28;20476;-78
2020/12/12 00:17:44;;;;;;;22.70;15.50;;;2.80;99.90;;;;;;5074156;28;20025;-78
2020/12/12 00:20:11;;;;;;;21.98;15.75;;;2.80;99.90;;;;;;5089828;28;20040;-78
2020/12/12 00:22:36;;;;;;;22.40;15.57;;;2.80;99.90;;;;;;5089640;28;20047;-78
2020/12/12 00:25:03;;;;;;;26.35;15.95;;;2.90;99.90;;;;;;5073828;28;20040;-78
2020/12/12 00:27:29;;;;;;;23.40;15.32;;;2.80;99.90;;;;;;5073969;28;20031;-78
2020/12/12 00:29:55;;;;;;;22.23;15.30;;;2.90;99.90;;;;;;5074248;28;20464;-80
2020/12/12 00:32:21;;;;;;;22.02;15.20;;;2.90;99.90;;;;;;5072672;28;20020;-78
2020/12/12 00:34:46;;;;;;;24.33;15.50;;;2.90;99.90;;;;;;5073862;28;20099;-80
2020/12/12 00:37:12;;;;;;;22.88;14.65;;;2.90;99.90;;;;;;5073871;28;20028;-77
2020/12/12 00:39:38;;;;;;;18.98;13.32;;;2.90;99.90;;;;;;5074126;28;20027;-78
2020/12/12 00:42:05;;;;;;;20.02;14.30;;;3.00;99.90;;;;;;5072448;28;20035;-78
2020/12/12 00:44:31;;;;;;;20.77;13.82;;;2.90;99.90;;;;;;5074024;28;20086;-78
2020/12/12 00:46:57;;;;;;;18.90;13.70;;;3.00;99.90;;;;;;5073744;28;20020;-78
2020/12/12 00:49:23;;;;;;;23.13;14.40;;;3.00;99.90;;;;;;5072420;28;20023;-79
2020/12/12 00:51:48;;;;;;;21.30;13.35;;;3.00;99.90;;;;;;5072409;28;20060;-78
2020/12/12 00:54:14;;;;;;;18.63;13.80;;;3.00;99.90;;;;;;5073698;28;20388;-78
2020/12/12 00:56:40;;;;;;;19.52;13.55;;;3.00;99.90;;;;;;5073616;28;20384;-78
2020/12/12 00:59:05;;;;;;;19.05;12.35;;;3.00;99.90;;;;;;5073825;28;20025;-84
2020/12/12 01:01:31;;;;;;;21.70;13.60;;;3.00;99.90;;;;;;5072259;28;20119;-77
2020/12/12 01:03:56;;;;;;;20.33;13.30;;;3.00;99.90;;;;;;5073477;28;20028;-78
2020/12/12 01:06:22;;;;;;;19.58;13.82;;;3.00;99.90;;;;;;5089073;28;20030;-79
2020/12/12 01:08:48;;;;;;;23.73;14.45;;;3.00;99.90;;;;;;5072229;28;20048;-78
2020/12/12 01:11:15;;;;;;;19.20;13.32;;;3.00;99.90;;;;;;5073320;28;20085;-79
2020/12/12 01:13:41;;;;;;;18.73;12.48;;;3.00;99.90;;;;;;5073439;28;20376;-78
2020/12/12 01:16:15;;;;;;;18.60;12.73;;;3.00;99.90;;;;;;5088947;28;20031;-81
2020/12/12 01:18:43;;;;;;;18.27;12.77;;;3.00;99.90;;;;;;5073428;28;20024;-79
2020/12/12 01:21:15;;;;;;;18.77;12.75;;;3.10;99.90;;;;;;5072100;28;20480;-78
2020/12/12 01:23:41;;;;;;;18.25;12.95;;;3.00;99.90;;;;;;5088822;28;20035;-79
2020/12/12 01:26:06;;;;;;;16.20;12.18;;;3.00;99.90;;;;;;5088751;28;20044;-79
2020/12/12 01:28:34;;;;;;;17.73;12.27;;;3.00;99.90;;;;;;5072024;28;20079;-79
2020/12/12 01:31:00;;;;;;;16.83;12.65;;;3.00;99.90;;;;;;5073272;28;20044;-80
2020/12/12 01:33:25;;;;;;;18.30;12.75;;;3.10;99.90;;;;;;5073336;28;20021;-78
2020/12/12 01:35:51;;;;;;;20.08;12.63;;;3.10;99.90;;;;;;5073241;28;20384;-78
2020/12/12 01:38:17;;;;;;;22.90;14.98;;;3.00;99.90;;;;;;5073197;28;20099;-79
2020/12/12 01:40:42;;;;;;;19.67;13.48;;;3.00;99.90;;;;;;5073261;28;20032;-78
2020/12/12 01:43:09;;;;;;;19.52;13.70;;;3.00;99.90;;;;;;5071832;28;20024;-79
2020/12/12 01:45:36;;;;;;;20.30;14.15;;;3.00;99.90;;;;;;5088667;28;20380;-78
2020/12/12 01:48:02;;;;;;;21.30;14.07;;;3.00;99.90;;;;;;5073229;28;20464;-79
2020/12/12 01:50:28;;;;;;;21.05;13.63;;;3.00;99.90;;;;;;5073174;28;20069;-86
2020/12/12 01:52:55;;;;;;;19.52;13.77;;;3.00;99.90;;;;;;5055180;28;20029;-79
2020/12/12 01:55:21;;;;;;;20.90;15.15;;;3.00;99.90;;;;;;5073049;28;20536;-79
2020/12/12 01:57:48;;;;;;;22.27;14.80;;;3.00;99.90;;;;;;5073072;28;20028;-79
2020/12/12 02:00:15;;;;;;;22.50;14.70;;;3.00;99.90;;;;;;5073060;28;20078;-78
2020/12/12 02:02:49;;;;;;;20.80;14.05;;;2.90;99.90;;;;;;5072939;28;20025;-78
2020/12/12 02:05:38;;;;;;;22.10;14.85;;;3.00;99.90;;;;;;5089178;28;20343;-79
2020/12/12 02:08:17;;;;;;;22.83;15.20;;;3.00;99.90;;;;;;5072999;28;20091;-78
2020/12/12 02:10:48;;;;;;;22.23;15.75;;;3.00;99.90;;;;;;5088565;28;20021;-80
2020/12/12 02:13:16;;;;;;;21.48;14.75;;;3.00;99.90;;;;;;5072928;28;20021;-80
2020/12/12 02:15:41;;;;;;;21.65;14.82;;;3.00;99.90;;;;;;5073155;28;20036;-84
2020/12/12 02:18:18;;;;;;;22.27;14.32;;;3.00;99.90;;;;;;5088318;28;20025;-79
2020/12/12 02:20:53;;;;;;;21.35;14.88;;;3.00;99.90;;;;;;5071600;28;20024;-79
2020/12/12 02:23:20;;;;;;;23.63;14.82;;;3.00;99.90;;;;;;5074968;28;20025;-79
2020/12/12 02:25:46;;;;;;;24.60;15.85;;;3.00;99.90;;;;;;5076177;28;20094;-79
2020/12/12 02:28:15;;;;;;;22.33;15.40;;;3.00;99.90;;;;;;5076293;28;20029;-79
2020/12/12 02:30:41;;;;;;;26.50;16.42;;;3.00;99.90;;;;;;5075003;28;20028;-81
2020/12/12 02:33:07;;;;;;;24.15;15.88;;;3.00;99.90;;;;;;5074929;28;20025;-79
2020/12/12 02:35:33;;;;;;;25.52;16.77;;;3.00;99.90;;;;;;5076754;28;20056;-79
2020/12/12 02:37:58;;;;;;;26.88;16.55;;;3.00;99.90;;;;;;5076152;28;20028;-79
2020/12/12 02:40:24;;;;;;;25.60;17.13;;;3.00;99.90;;;;;;5074824;28;20074;-79
2020/12/12 02:42:49;;;;;;;31.30;17.95;;;2.90;99.90;;;;;;5075955;28;20049;-79
2020/12/12 02:45:18;;;;;;;25.52;16.38;;;3.00;99.90;;;;;;5076026;28;20032;-78
2020/12/12 02:47:45;;;;;;;27.30;17.08;;;3.00;99.90;;;;;;5074620;28;20020;-78
2020/12/12 02:50:13;;;;;;;27.55;17.92;;;2.90;99.90;;;;;;5075912;28;20017;-79
2020/12/12 02:52:41;;;;;;;26.70;17.70;;;2.90;99.90;;;;;;5091461;28;20024;-79
2020/12/12 02:55:10;;;;;;;32.85;19.38;;;2.90;99.90;;;;;;5091425;28;20499;-79
2020/12/12 02:57:36;;;;;;;26.20;17.45;;;2.90;99.90;;;;;;5075775;28;20099;-79
2020/12/12 03:00:11;;;;;;;27.38;16.65;;;2.90;99.90;;;;;;5091402;28;20028;-78
2020/12/12 03:02:37;;;;;;;28.00;17.77;;;3.00;99.90;;;;;;5074399;28;20035;-80
2020/12/12 03:05:04;;;;;;;26.48;18.60;;;3.00;99.90;;;;;;5075652;28;20017;-79
2020/12/12 03:07:30;;;;;;;28.15;17.45;;;3.00;99.90;;;;;;5091154;28;20047;-83
2020/12/12 03:09:56;;;;;;;27.92;17.48;;;3.00;99.90;;;;;;5075549;28;20016;-79
2020/12/12 03:12:21;;;;;;;29.27;17.73;;;3.00;99.90;;;;;;5074229;28;20040;-79
2020/12/12 03:14:47;;;;;;;26.13;17.58;;;3.00;99.90;;;;;;5075432;28;20035;-81
2020/12/12 03:17:13;;;;;;;28.02;17.85;;;3.00;99.90;;;;;;5074158;28;20024;-80
2020/12/12 03:19:39;;;;;;;26.25;17.70;;;3.00;99.90;;;;;;5074057;28;20032;-79
2020/12/12 03:22:05;;;;;;;31.25;18.67;;;3.00;99.90;;;;;;5090841;28;20436;-79
2020/12/12 03:24:32;;;;;;;27.15;18.10;;;3.00;99.90;;;;;;5075113;28;20090;-78
2020/12/12 03:26:58;;;;;;;27.45;18.67;;;3.10;99.90;;;;;;5075189;28;20106;-79
2020/12/12 03:29:24;;;;;;;25.65;17.92;;;3.10;99.90;;;;;;5075248;28;20051;-79
2020/12/12 03:31:50;;;;;;;25.88;17.67;;;3.10;99.90;;;;;;5073890;28;20017;-78
2020/12/12 03:34:16;;;;;;;26.90;18.33;;;3.20;99.90;;;;;;5074905;28;20024;-82
2020/12/12 03:36:41;;;;;;;27.30;17.92;;;3.20;99.90;;;;;;5075064;28;20025;-79
2020/12/12 03:39:07;;;;;;;27.55;18.30;;;3.20;99.90;;;;;;5073739;28;20475;-79
2020/12/12 03:41:33;;;;;;;25.85;17.90;;;3.20;99.90;;;;;;5074929;28;20020;-80
2020/12/12 03:43:58;;;;;;;26.23;17.85;;;3.30;99.90;;;;;;5075392;28;20529;-80
2020/12/12 03:46:24;;;;;;;24.98;16.90;;;3.30;99.90;;;;;;5074917;28;20020;-79
2020/12/12 03:48:50;;;;;;;24.52;17.95;;;3.30;99.90;;;;;;5073538;28;20073;-81
2020/12/12 03:51:17;;;;;;;28.33;19.33;;;3.30;99.90;;;;;;5073476;28;20017;-81
2020/12/12 03:53:42;;;;;;;27.42;18.85;;;3.30;99.90;;;;;;5074698;28;20103;-79
2020/12/12 03:56:08;;;;;;;27.73;19.00;;;3.30;99.90;;;;;;5074607;28;20109;-80
2020/12/12 03:58:34;;;;;;;27.70;18.48;;;3.30;99.90;;;;;;5074557;28;20028;-80
2020/12/12 04:00:59;;;;;;;26.38;18.40;;;3.30;99.90;;;;;;5074738;28;20039;-79
2020/12/12 04:03:25;;;;;;;26.55;19.08;;;3.30;99.90;;;;;;5073136;28;20035;-79
2020/12/12 04:05:52;;;;;;;24.92;18.83;;;3.30;99.90;;;;;;5074670;28;20021;-79
2020/12/12 04:08:17;;;;;;;28.83;19.13;;;3.30;99.90;;;;;;5074412;28;20095;-79
2020/12/12 04:10:44;;;;;;;27.02;18.73;;;3.30;99.90;;;;;;5073081;28;20052;-79
2020/12/12 04:13:10;;;;;;;25.80;19.15;;;3.30;99.90;;;;;;5074323;28;20055;-79
2020/12/12 04:15:35;;;;;;;27.38;18.83;;;3.30;99.90;;;;;;5072950;28;20032;-79
2020/12/12 04:18:02;;;;;;;29.27;20.10;;;3.30;99.90;;;;;;5074219;28;20052;-82
2020/12/12 04:20:27;;;;;;;27.02;18.45;;;3.20;99.90;;;;;;5074206;28;20052;-79
2020/12/12 04:22:53;;;;;;;28.17;18.48;;;3.20;99.90;;;;;;5072741;28;20459;-79
2020/12/12 04:25:19;;;;;;;24.88;17.58;;;3.20;99.90;;;;;;5072623;28;20044;-79
2020/12/12 04:27:45;;;;;;;28.27;18.40;;;3.20;99.90;;;;;;5072770;28;20029;-78
2020/12/12 04:30:11;;;;;;;28.17;19.58;;;3.20;99.90;;;;;;5074263;28;20060;-79
2020/12/12 04:32:36;;;;;;;28.10;18.67;;;3.20;99.90;;;;;;5073888;28;20039;-79
2020/12/12 04:35:03;;;;;;;26.13;18.92;;;3.20;99.90;;;;;;5072610;28;20484;-79
2020/12/12 04:37:29;;;;;;;27.58;18.52;;;3.20;99.90;;;;;;5072638;28;20163;-79
2020/12/12 04:39:54;;;;;;;26.77;18.52;;;3.20;99.90;;;;;;5072555;28;20518;-79
2020/12/12 04:42:21;;;;;;;26.42;18.17;;;3.20;99.90;;;;;;5073693;28;20040;-80
2020/12/12 04:44:47;;;;;;;24.15;16.98;;;3.20;99.90;;;;;;5073427;28;20025;-79
2020/12/12 04:47:13;;;;;;;27.60;18.30;;;3.20;99.90;;;;;;5072267;28;20080;-79
2020/12/12 04:49:42;;;;;;;26.13;19.00;;;3.20;99.90;;;;;;5072469;28;20016;-79
2020/12/12 04:52:08;;;;;;;24.45;17.73;;;3.20;99.90;;;;;;5089331;28;20494;-79
2020/12/12 04:54:35;;;;;;;26.27;18.08;;;3.20;99.90;;;;;;5072385;28;20024;-79
2020/12/12 04:57:05;;;;;;;25.90;17.98;;;3.20;99.90;;;;;;5089294;28;20021;-79
2020/12/12 04:59:33;;;;;;;26.48;18.00;;;3.20;99.90;;;;;;5073590;28;20052;-83
2020/12/12 05:02:01;;;;;;;26.92;16.70;;;3.20;99.90;;;;;;5089123;28;20048;-81
2020/12/12 05:04:27;;;;;;;24.67;18.13;;;3.20;99.90;;;;;;5073559;28;20063;-78
2020/12/12 05:06:52;;;;;;;25.33;17.55;;;3.20;99.90;;;;;;5072217;28;20029;-79
2020/12/12 05:09:19;;;;;;;25.77;18.58;;;3.20;99.90;;;;;;5072534;28;20035;-82
2020/12/12 05:11:48;;;;;;;30.15;19.65;;;3.20;99.90;;;;;;5088999;28;20025;-78
2020/12/12 05:14:15;;;;;;;27.27;17.77;;;3.20;99.90;;;;;;5073673;28;20032;-79
2020/12/12 05:16:44;;;;;;;27.55;18.52;;;3.20;99.90;;;;;;5088982;28;20029;-79
2020/12/12 05:19:10;;;;;;;27.30;17.67;;;3.20;99.90;;;;;;5088960;28;20047;-78
2020/12/12 05:21:45;;;;;;;26.42;18.30;;;3.20;99.90;;;;;;5073406;28;20471;-79
2020/12/12 05:24:11;;;;;;;24.25;17.38;;;3.20;99.90;;;;;;5088724;28;20048;-79
2020/12/12 05:26:37;;;;;;;25.00;16.98;;;3.20;99.90;;;;;;5072124;28;20032;-78
2020/12/12 05:29:04;;;;;;;25.33;17.25;;;3.20;99.90;;;;;;5088909;28;20021;-82
2020/12/12 05:31:30;;;;;;;25.80;17.58;;;3.20;99.90;;;;;;5088899;28;20029;-79
2020/12/12 05:33:56;;;;;;;24.77;16.75;;;3.20;99.90;;;;;;5073257;28;20110;-79
2020/12/12 05:36:28;;;;;;;25.45;17.77;;;3.20;99.90;;;;;;5073266;28;20501;-78
2020/12/12 05:38:59;;;;;;;25.73;17.48;;;3.10;99.90;;;;;;5073262;28;20025;-78
2020/12/12 05:41:27;;;;;;;27.65;18.25;;;3.10;99.90;;;;;;5073515;28;20016;-79
2020/12/12 05:43:54;;;;;;;25.90;17.10;;;3.10;99.90;;;;;;5088620;28;20028;-79
2020/12/12 05:46:24;;;;;;;25.80;17.50;;;3.10;99.90;;;;;;5073060;28;20024;-78
2020/12/12 05:48:53;;;;;;;24.20;17.02;;;3.10;99.90;;;;;;5073123;28;20063;-78
2020/12/12 05:51:20;;;;;;;24.58;17.05;;;3.20;99.90;;;;;;5073113;28;20027;-79
2020/12/12 05:53:47;;;;;;;22.95;16.50;;;3.10;99.90;;;;;;5088645;28;20059;-79
2020/12/12 05:56:14;;;;;;;27.02;18.00;;;3.10;99.90;;;;;;5072062;28;20480;-78
2020/12/12 05:58:46;;;;;;;26.23;17.38;;;3.10;99.90;;;;;;5077445;28;20024;-79
2020/12/12 06:01:26;;;;;;;25.55;16.92;;;3.20;99.90;;;;;;5076950;28;20060;-79
2020/12/12 06:03:51;;;;;;;26.50;17.80;;;3.20;99.90;;;;;;5092394;28;20401;-79
2020/12/12 06:06:23;;;;;;;26.52;17.38;;;3.10;99.90;;;;;;5075427;28;20112;-78
2020/12/12 06:09:03;;;;;;;26.08;17.90;;;3.10;99.90;;;;;;5092372;28;20055;-78
2020/12/12 06:11:30;;;;;;;28.00;18.23;;;3.10;99.90;;;;;;5076949;28;20372;-79
2020/12/12 06:13:58;;;;;;;29.85;18.48;;;3.10;99.90;;;;;;5075352;28;20052;-78
2020/12/12 06:16:26;;;;;;;29.75;18.48;;;3.00;99.90;;;;;;5076517;28;20357;-78
2020/12/12 06:19:24;;;;;;;28.20;18.58;;;3.00;99.90;;;;;;5076508;28;20032;-79
2020/12/12 06:21:50;;;;;;;30.20;19.65;;;3.00;99.90;;;;;;5077063;28;20468;-78
2020/12/12 06:24:18;;;;;;;29.63;19.65;;;3.00;99.90;;;;;;5091718;28;20408;-79
2020/12/12 06:27:07;;;;;;;31.35;19.40;;;3.00;99.90;;;;;;5076657;28;20025;-78
2020/12/12 06:29:42;;;;;;;31.00;17.92;;;3.00;99.90;;;;;;5076358;28;20029;-78
2020/12/12 06:32:16;;;;;;;30.95;19.02;;;3.00;99.90;;;;;;5076189;28;20025;-78
2020/12/12 06:34:44;;;;;;;25.85;17.88;;;3.00;99.90;;;;;;5076532;28;20468;-80
2020/12/12 06:37:33;;;;;;;27.08;17.90;;;3.00;99.90;;;;;;5091770;28;20476;-78
2020/12/12 06:40:08;;;;;;;31.73;19.20;;;2.90;99.90;;;;;;5091759;28;20020;-78
2020/12/12 06:42:38;;;;;;;29.38;18.58;;;2.90;99.90;;;;;;5074789;28;20037;-79
2020/12/12 06:45:24;;;;;;;29.83;19.25;;;2.90;99.90;;;;;;5076356;28;20048;-78
2020/12/12 06:47:54;;;;;;;29.33;18.88;;;2.90;99.90;;;;;;5075900;28;20423;-79
2020/12/12 06:50:25;;;;;;;29.10;18.35;;;2.90;99.90;;;;;;5091515;28;20025;-78
2020/12/12 06:52:53;;;;;;;28.08;17.52;;;2.90;99.90;;;;;;5075898;28;20024;-78
2020/12/12 06:55:22;;;;;;;25.48;17.85;;;2.90;99.90;;;;;;5074583;28;20498;-77
2020/12/12 06:57:55;;;;;;;26.80;17.80;;;2.90;99.90;;;;;;5074440;28;20054;-77
2020/12/12 07:00:29;;;;;;;25.80;17.42;;;2.90;99.90;;;;;;5076045;28;20472;-77
2020/12/12 07:02:59;;;;;;;;;;;3.00;99.90;;;;;;5074763;28;20024;-77
2020/12/12 07:05:28;;;;;;;22.20;15.80;;;3.00;99.90;;;;;;5075641;28;19954;-76
2020/12/12 07:07:58;;;;;;;24.40;16.98;;;3.10;99.90;;;;;;5073926;28;20111;-76
2020/12/12 07:10:23;;;;;;;23.17;15.48;;;3.10;99.90;;;;;;5075815;28;20024;-77
2020/12/12 07:12:49;;;;;;;23.80;16.00;;;3.10;99.90;;;;;;5075481;28;20093;-77
2020/12/12 07:15:15;;;;;;;22.63;14.43;;;3.10;99.90;;;;;;5075486;28;20490;-77
2020/12/12 07:17:41;;;;;;;24.73;16.13;;;3.20;99.90;;;;;;5075718;28;20028;-77
2020/12/12 07:20:07;;;;;;;23.25;15.85;;;3.20;99.90;;;;;;5074125;28;20035;-77
2020/12/12 07:22:34;;;;;;;26.30;16.42;;;3.20;99.90;;;;;;5075287;28;20082;-77
2020/12/12 07:24:59;;;;;;;21.05;14.88;;;3.20;99.90;;;;;;5075135;28;20400;-77
2020/12/12 07:27:26;;;;;;;23.15;16.23;;;3.20;99.90;;;;;;5073967;28;20028;-78
2020/12/12 07:29:51;;;;;;;30.17;18.13;;;3.20;99.90;;;;;;5073899;28;20028;-79
2020/12/12 07:32:17;;;;;;;35.83;18.80;;;3.20;99.90;;;;;;5073981;28;20021;-79
2020/12/12 07:34:43;;;;;;;30.90;16.77;;;3.20;99.90;;;;;;5075119;28;20077;-77
2020/12/12 07:37:10;;;;;;;21.83;14.38;;;3.10;99.90;;;;;;5074307;28;20020;-77
2020/12/12 07:39:41;;;;;;;28.90;19.00;;;3.10;99.90;;;;;;5074975;28;20407;-78
2020/12/12 07:42:09;;;;;;;22.08;14.52;;;3.20;99.90;;;;;;5075207;28;20016;-77
2020/12/12 07:44:41;;;;;;;18.65;13.68;;;3.20;99.90;;;;;;5074901;28;20024;-77
2020/12/12 07:47:09;;;;;;;25.88;15.25;;;3.20;99.90;;;;;;5074805;28;20104;-77
2020/12/12 07:49:36;;;;;;;19.50;13.75;;;3.30;99.90;;;;;;5090409;28;20035;-77
2020/12/12 07:52:08;;;;;;;18.00;13.52;;;3.30;99.90;;;;;;5074698;28;20021;-77
2020/12/12 07:54:47;;;;;;;20.75;13.07;;;3.40;99.90;;;;;;5073486;28;20107;-77
2020/12/12 07:57:14;;;;;;;21.77;12.50;;;3.40;99.90;;;;;;5090329;28;20091;-78
2020/12/12 07:59:43;;;;;;;18.63;14.10;;;3.40;99.90;;;;;;5073352;28;20395;-77
2020/12/12 08:02:11;;;;;;;15.75;10.82;;;3.40;99.90;;;;;;5073168;28;20029;-77
2020/12/12 08:04:37;;;;;;;17.35;11.88;;;3.40;99.90;;;;;;5073229;28;20368;-77
2020/12/12 08:07:16;;;;;;;20.40;12.45;;;3.40;99.90;;;;;;5073209;28;20020;-77
2020/12/12 08:09:51;;;;;;;17.17;12.25;;;3.40;99.90;;;;;;5074748;28;20021;-77
2020/12/12 08:12:32;;;;;;;18.17;11.85;;;3.40;99.90;;;;;;5074846;28;20463;-78
2020/12/12 08:15:19;;;;;;;16.27;11.40;;;3.40;99.90;;;;;;5090020;28;20029;-77
2020/12/12 08:17:45;;;;;;;16.58;11.57;;;3.50;99.90;;;;;;5073040;28;20025;-78
2020/12/12 08:20:24;;;;;;;15.55;11.80;;;3.50;99.90;;;;;;5089002;28;20024;-77
2020/12/12 08:22:51;;;;;;;17.88;11.75;;;3.50;99.90;;;;;;5074407;28;20086;-77
2020/12/12 08:25:19;;;;;;;16.70;11.55;;;3.50;99.90;;;;;;5073996;28;20048;-77
2020/12/12 08:27:45;;;;;;;15.50;11.27;;;3.60;99.90;;;;;;5074423;28;20371;-78
2020/12/12 08:30:11;;;;;;;15.95;12.13;;;3.60;99.90;;;;;;5073996;28;20108;-77
2020/12/12 08:32:46;;;;;;;15.15;10.63;;;3.70;99.90;;;;;;5072674;28;20119;-77
2020/12/12 08:35:14;;;;;;;19.30;10.95;;;3.80;99.90;;;;;;5073907;28;20070;-77
2020/12/12 08:37:49;;;;;;;16.50;11.20;;;3.80;99.90;;;;;;5089591;28;20032;-77
2020/12/12 08:40:15;;;;;;;14.73;10.55;;;3.90;99.90;;;;;;5089722;28;20077;-77
2020/12/12 08:42:40;;;;;;;14.43;10.93;;;3.90;99.90;;;;;;5089364;28;20029;-78
2020/12/12 08:45:16;;;;;;;16.88;10.85;;;3.90;99.90;;;;;;5072433;28;20124;-77
2020/12/12 08:47:43;;;;;;;16.23;10.13;;;4.00;99.90;;;;;;5089301;28;20024;-77
2020/12/12 08:50:09;;;;;;;13.13;10.52;;;4.00;99.90;;;;;;5073752;28;20096;-77
2020/12/12 08:52:35;;;;;;;16.10;10.65;;;4.00;99.90;;;;;;5073725;28;20052;-78
2020/12/12 08:55:03;;;;;;;15.70;10.30;;;4.00;99.90;;;;;;5072357;28;20416;-77
2020/12/12 08:57:28;;;;;;;13.93;10.30;;;4.00;99.90;;;;;;5073709;28;20016;-78
2020/12/12 09:00:01;;;;;;;14.80;10.27;;;4.00;99.90;;;;;;5073677;28;20070;-76
2020/12/12 09:02:28;;;;;;;13.65;9.77;;;4.10;99.90;;;;;;5073825;28;20032;-78
2020/12/12 09:05:10;;;;;;;14.52;10.15;;;4.10;99.90;;;;;;5073615;28;20017;-78
2020/12/12 09:07:36;;;;;;;11.65;9.38;;;4.10;99.90;;;;;;5072339;28;20043;-78
2020/12/12 09:10:10;;;;;;;15.02;10.68;;;4.00;99.90;;;;;;5073562;28;20104;-78
2020/12/12 09:12:45;;;;;;;13.18;9.80;;;4.00;99.90;;;;;;5073808;28;20341;-77
2020/12/12 09:15:12;;;;;;;13.75;9.50;;;4.10;99.90;;;;;;5072131;28;20037;-77
2020/12/12 09:17:37;;;;;;;12.45;9.20;;;4.10;99.90;;;;;;5073736;28;20024;-77
2020/12/12 09:20:03;;;;;;;11.70;9.45;;;4.10;99.90;;;;;;5073673;28;20537;-77
2020/12/12 09:22:29;;;;;;;17.25;13.80;;;4.10;99.90;;;;;;5088841;28;20052;-77
2020/12/12 09:24:55;;;;;;;13.05;9.80;;;4.10;99.90;;;;;;5073314;28;20044;-77
2020/12/12 09:27:21;;;;;;;17.13;12.50;;;4.10;99.90;;;;;;5088914;28;20025;-77
2020/12/12 09:29:47;;;;;;;16.52;11.57;;;4.10;99.90;;;;;;5073285;28;20029;-76
2020/12/12 09:32:13;;;;;;;13.32;9.63;;;4.10;99.90;;;;;;5075672;28;20017;-78
2020/12/12 09:34:39;;;;;;;14.52;9.55;;;4.20;99.90;;;;;;5077974;28;20102;-76
2020/12/12 09:37:05;;;;;;;11.73;9.45;;;4.20;99.90;;;;;;5077395;28;20473;-77
2020/12/12 09:39:31;;;;;;;11.85;9.25;;;4.30;99.90;;;;;;5076051;28;20024;-77
2020/12/12 09:42:00;;;;;;;12.23;9.40;;;4.20;99.90;;;;;;5077231;28;20107;-78
2020/12/12 09:44:27;;;;;;;15.93;10.43;;;4.20;99.90;;;;;;5077378;28;20024;-77
2020/12/12 09:46:53;;;;;;;14.27;10.43;;;4.20;99.90;;;;;;5077117;28;20471;-78
2020/12/12 09:49:20;;;;;;;13.27;9.80;;;4.10;99.90;;;;;;5075865;28;20024;-78
2020/12/12 09:51:46;;;;;;;17.88;11.82;;;4.10;99.90;;;;;;5077370;28;20020;-77
2020/12/12 09:54:12;;;;;;;16.70;10.63;;;4.20;99.90;;;;;;5077023;28;20087;-77
2020/12/12 09:56:38;;;;;;;13.38;9.05;;;4.20;99.90;;;;;;5076927;28;20490;-78
2020/12/12 09:59:04;;;;;;;13.48;9.10;;;4.20;99.90;;;;;;5075610;28;20115;-77
2020/12/12 10:01:30;;;;;;;10.85;8.23;;;4.20;99.90;;;;;;5076820;28;20538;-78
2020/12/12 10:03:56;;;;;;;14.60;9.38;;;4.30;99.90;;;;;;5092326;28;20020;-77
2020/12/12 10:06:22;;;;;;;13.93;9.82;;;4.30;99.90;;;;;;5092487;28;20027;-78
2020/12/12 10:08:47;;;;;;;13.88;9.52;;;4.30;99.90;;;;;;5076679;28;20017;-77
2020/12/12 10:11:13;;;;;;;14.82;10.15;;;4.30;99.90;;;;;;5076689;28;20130;-77
2020/12/12 10:13:39;;;;;;;14.60;9.60;;;4.30;99.90;;;;;;5075271;28;20035;-77
2020/12/12 10:16:05;;;;;;;19.58;13.52;;;4.30;99.90;;;;;;5077143;28;20035;-77
2020/12/12 10:18:31;;;;;;;13.93;9.68;;;4.30;99.90;;;;;;5076552;28;20046;-77
2020/12/12 10:20:57;;;;;;;18.05;12.18;;;4.30;99.90;;;;;;5075175;28;20039;-77
2020/12/12 10:23:23;;;;;;;18.02;11.45;;;4.40;99.90;;;;;;5091956;28;20082;-77
2020/12/12 10:25:49;;;;;;;14.73;10.10;;;4.40;99.90;;;;;;5076266;28;20044;-77
2020/12/12 10:28:17;;;;;;;15.57;10.07;;;4.40;99.90;;;;;;5076571;28;20060;-76
2020/12/12 10:30:42;;;;;;;14.05;9.05;;;4.40;99.90;;;;;;5091881;28;20494;-77
2020/12/12 10:33:08;;;;;;;26.40;15.48;;;4.40;99.90;;;;;;5076288;28;20095;-77
2020/12/12 10:35:34;;;;;;;34.38;16.80;;;4.50;99.90;;;;;;5076096;28;20553;-78
2020/12/12 10:38:00;;;;;;;35.53;17.27;;;4.60;99.90;;;;;;5076683;28;20056;-77
2020/12/12 10:40:33;;;;;;;31.55;15.18;;;4.60;99.90;;;;;;5074823;28;20048;-78
2020/12/12 10:43:00;;;;;;;39.53;17.40;;;4.60;99.90;;;;;;5075065;28;20028;-77
2020/12/12 10:45:25;;;;;;;15.13;10.15;;;4.60;99.90;;;;;;5074604;28;20064;-77
2020/12/12 10:47:51;;;;;;;12.98;9.27;;;4.60;99.90;;;;;;5074713;28;20021;-77
2020/12/12 10:50:17;;;;;;;21.73;12.90;;;4.70;99.90;;;;;;5091520;28;20029;-77
2020/12/12 10:52:42;;;;;;;11.85;8.18;;;4.70;99.90;;;;;;5074723;28;20483;-77
2020/12/12 10:55:08;;;;;;;13.18;7.97;;;4.70;99.90;;;;;;5076133;28;20016;-77
2020/12/12 10:57:34;;;;;;;118.03;39.80;;;4.70;99.90;;;;;;5074566;28;20105;-78
2020/12/12 11:00:02;;;;;;;17.35;9.15;;;4.70;99.90;;;;;;5075842;28;20032;-77
2020/12/12 11:02:29;;;;;;;16.55;9.85;;;4.70;99.90;;;;;;5075663;28;20028;-77
2020/12/12 11:04:55;;;;;;;149.32;48.67;;;4.80;99.90;;;;;;5074449;28;20365;-78
2020/12/12 11:07:21;;;;;;;44.05;16.50;;;4.70;99.90;;;;;;5074351;28;20027;-78
2020/12/12 11:09:47;;;;;;;18.52;9.45;;;4.70;99.90;;;;;;5075623;28;20024;-77
2020/12/12 11:12:13;;;;;;;13.68;9.05;;;4.70;99.90;;;;;;5075594;28;20017;-77
2020/12/12 11:14:40;;;;;;;11.27;8.15;;;4.70;99.90;;;;;;5076079;28;20016;-78
2020/12/12 11:17:06;;;;;;;45.20;21.05;;;4.70;99.90;;;;;;5075519;28;20461;-77
2020/12/12 11:19:32;;;;;;;18.15;12.10;;;4.80;99.90;;;;;;5074159;28;20025;-77
2020/12/12 11:21:57;;;;;;;10.98;8.60;;;4.90;99.90;;;;;;5075369;28;20020;-77
2020/12/12 11:24:24;;;;;;;38.25;29.08;;;4.80;99.90;;;;;;5075282;28;20044;-77
2020/12/12 11:26:52;;;;;;;26.30;17.45;;;4.90;99.90;;;;;;5090968;28;20055;-78
2020/12/12 11:29:18;;;;;;;13.35;9.88;;;4.90;99.90;;;;;;5073997;28;20468;-78
2020/12/12 11:31:48;;;;;;;13.95;9.23;;;5.00;99.90;;;;;;5073874;28;20060;-77
2020/12/12 11:45:06;;;;;;;9.18;7.07;;;5.20;99.90;;;;;;5075476;28;20122;-77
2020/12/12 11:47:32;;;;;;;8.90;6.88;;;5.20;99.90;;;;;;5091361;28;20024;-78
2020/12/12 11:49:58;;;;;;;9.68;6.15;;;5.20;99.90;;;;;;5075079;28;20021;-78
2020/12/12 11:52:24;;;;;;;11.05;6.68;;;5.20;99.90;;;;;;5074782;28;20431;-77
2020/12/12 11:54:50;;;;;;;9.82;6.40;;;5.30;99.90;;;;;;5074888;28;20016;-77
2020/12/12 11:57:16;;;;;;;11.77;7.05;;;5.30;99.90;;;;;;5090289;28;20027;-78
2020/12/12 11:59:44;;;;;;;9.45;6.38;;;5.40;99.90;;;;;;5074853;28;20421;-78
2020/12/12 12:02:10;;;;;;;8.65;6.38;;;5.40;99.90;;;;;;5090179;28;20025;-77
2020/12/12 12:04:36;;;;;;;8.20;6.45;;;5.50;99.90;;;;;;5090050;28;20072;-77
2020/12/12 12:07:03;;;;;;;12.32;7.55;;;5.50;99.90;;;;;;5074820;28;20016;-77
2020/12/12 12:09:38;;;;;;;13.45;8.18;;;5.50;99.90;;;;;;5074481;28;20066;-77
2020/12/12 12:12:04;;;;;;;31.17;15.32;;;5.40;99.90;;;;;;5073122;28;20021;-77
2020/12/12 12:14:30;;;;;;;29.50;12.35;;;5.40;99.90;;;;;;5089977;28;20032;-77
2020/12/12 12:16:55;;;;;;;237.30;55.15;;;5.40;99.90;;;;;;5074286;28;20024;-78
2020/12/12 12:19:21;;;;;;;31.80;15.02;;;5.50;99.90;;;;;;5074247;28;20048;-77
2020/12/12 12:21:48;;;;;;;24.67;11.07;;;5.50;99.90;;;;;;5074158;28;20028;-77
2020/12/12 12:24:16;;;;;;;17.73;10.25;;;5.50;99.90;;;;;;5074187;28;20048;-78
2020/12/12 12:26:43;;;;;;;10.85;7.25;;;5.50;99.90;;;;;;5074153;28;20020;-77
2020/12/12 12:29:12;;;;;;;11.98;7.32;;;5.40;99.90;;;;;;5074097;28;20020;-77
2020/12/12 12:31:38;;;;;;;9.98;6.97;;;5.40;99.90;;;;;;5074077;28;20024;-77
2020/12/12 12:34:04;;;;;;;7.80;6.00;;;5.50;99.90;;;;;;5074045;28;20556;-77
2020/12/12 12:36:31;;;;;;;10.77;7.10;;;5.50;99.90;;;;;;5074053;28;20114;-78
2020/12/12 12:39:00;;;;;;;16.02;7.57;;;5.60;99.90;;;;;;5073964;28;20387;-77
2020/12/12 12:41:27;;;;;;;9.20;6.90;;;5.60;99.90;;;;;;5073919;28;20033;-77
2020/12/12 12:43:54;;;;;;;15.23;8.27;;;5.70;99.90;;;;;;5073699;28;20039;-78
2020/12/12 12:46:21;;;;;;;16.05;7.57;;;5.70;99.90;;;;;;5072524;28;20020;-77
2020/12/12 12:48:48;;;;;;;7.57;5.82;;;5.70;99.90;;;;;;5073784;28;20028;-77
2020/12/12 12:51:14;;;;;;;13.60;6.55;;;5.70;99.90;;;;;;5074054;28;20503;-77